GQPA/ATR METAR and TAF weather

Enter ICAO airport designator
Station Type Date Time Source
GQPA METAR 2021/09/16 09:00 UTC NOAA

GQPA 160900Z 36006KT 2000 BLDU NSC 32/08 Q1017


Station Type Date Time Source
GQPA Decoded METAR 2021/09/16 09:00 UTC NOAA

Atar, Mauritania (GQPA) 20-31N 013-04W 224M
Sep 16, 2021 - 05:00 AM EDT / 2021.09.16 0900 UTC
Wind: from the N (360 degrees) at 7 MPH (6 KT):0
Visibility: 1 mile(s):0
Weather: blowing widespread dust
Temperature: 89 F (32 C)
Dew Point: 46 F (8 C)
Relative Humidity: 22%
Pressure (altimeter): 30.03 in. Hg (1017 hPa)
ob: GQPA 160900Z 36006KT 2000 BLDU NSC 32/08 Q1017
cycle: 9

Station Type Date Time Source
GQPA TAF UTC NOAA

Error!

Example: see airport list